createdAt,value
2019-03-08T00:00:34.322Z,55.80
2019-03-08T00:03:06.384Z,55.90
2019-03-08T00:05:37.177Z,55.90
2019-03-08T00:08:08.018Z,56.00
2019-03-08T00:10:38.867Z,55.70
2019-03-08T00:13:10.749Z,55.60
2019-03-08T00:15:41.536Z,55.60
2019-03-08T00:18:12.508Z,55.60
2019-03-08T00:20:43.259Z,55.50
2019-03-08T00:23:15.032Z,55.40
2019-03-08T00:25:45.833Z,55.80
2019-03-08T00:28:16.593Z,55.90
2019-03-08T00:30:47.231Z,56.20
2019-03-08T00:33:19.195Z,56.30
2019-03-08T00:35:49.827Z,56.60
2019-03-08T00:38:20.642Z,56.90
2019-03-08T00:40:51.311Z,57.00
2019-03-08T00:43:23.170Z,57.30
2019-03-08T00:45:53.850Z,57.40
2019-03-08T00:48:24.621Z,57.60
2019-03-08T00:50:55.298Z,57.80
2019-03-08T00:53:27.220Z,57.90
2019-03-08T00:55:57.859Z,58.10
2019-03-08T00:58:28.946Z,58.40
2019-03-08T01:01:00.683Z,58.60
2019-03-08T01:03:32.821Z,58.80
2019-03-08T01:06:04.434Z,59.10
2019-03-08T01:08:35.006Z,58.90
2019-03-08T01:11:05.197Z,58.40
2019-03-08T01:13:36.016Z,57.50
2019-03-08T01:16:06.877Z,57.30
2019-03-08T01:18:37.639Z,57.20
2019-03-08T01:21:07.834Z,56.90
2019-03-08T01:23:39.699Z,56.80
2019-03-08T01:26:10.652Z,56.60
2019-03-08T01:28:41.526Z,56.70
2019-03-08T01:31:12.435Z,56.50
2019-03-08T01:33:44.386Z,56.30
2019-03-08T01:36:15.075Z,56.20
2019-03-08T01:38:45.909Z,55.90
2019-03-08T01:41:16.193Z,55.90
2019-03-08T01:43:48.068Z,55.90
2019-03-08T01:46:18.814Z,55.80
2019-03-08T01:48:49.586Z,55.70
2019-03-08T01:51:20.246Z,55.90
2019-03-08T01:53:52.003Z,55.80
2019-03-08T01:56:22.658Z,55.60
2019-03-08T01:58:54.446Z,55.60
2019-03-08T02:01:25.179Z,55.80
2019-03-08T02:03:55.963Z,55.60
2019-03-08T02:06:26.942Z,55.80
2019-03-08T02:08:57.965Z,56.00
2019-03-08T02:11:28.623Z,55.90
2019-03-08T02:13:59.382Z,56.20
2019-03-08T02:16:30.149Z,56.30
2019-03-08T02:19:01.214Z,56.30
2019-03-08T02:21:31.981Z,56.50
2019-03-08T02:24:02.779Z,56.60
2019-03-08T02:26:33.645Z,56.70
2019-03-08T02:29:04.628Z,57.00
2019-03-08T02:31:35.687Z,57.00
2019-03-08T02:34:06.582Z,57.30
2019-03-08T02:36:37.256Z,57.70
2019-03-08T02:39:09.216Z,57.90
2019-03-08T02:41:41.512Z,58.10
2019-03-08T02:44:12.374Z,58.20
2019-03-08T02:46:43.019Z,58.10
2019-03-08T02:49:13.896Z,58.30
2019-03-08T02:51:44.535Z,58.40
2019-03-08T02:54:15.311Z,58.50
2019-03-08T02:56:46.053Z,58.50
2019-03-08T02:59:17.978Z,58.50
2019-03-08T03:01:50.798Z,58.60
2019-03-08T03:04:21.572Z,58.70
2019-03-08T03:06:52.236Z,58.80
2019-03-08T03:09:22.486Z,59.00
2019-03-08T03:11:54.232Z,59.40
2019-03-08T03:14:25.017Z,59.40
2019-03-08T03:16:55.661Z,59.50
2019-03-08T03:19:26.445Z,59.70
2019-03-08T03:21:58.196Z,59.60
2019-03-08T03:24:28.952Z,59.60
2019-03-08T03:26:59.592Z,59.70
2019-03-08T03:29:30.562Z,59.90
2019-03-08T03:32:02.249Z,59.70
2019-03-08T03:34:33.037Z,59.60
2019-03-08T03:37:03.719Z,59.90
2019-03-08T03:39:34.553Z,60.80
2019-03-08T03:42:06.422Z,59.90
2019-03-08T03:44:36.612Z,59.90
2019-03-08T03:47:07.270Z,59.90
2019-03-08T03:49:38.122Z,60.00
2019-03-08T03:52:09.846Z,60.10
2019-03-08T03:54:40.634Z,60.30
2019-03-08T03:57:10.693Z,60.30
2019-03-08T03:59:42.505Z,60.30
2019-03-08T04:02:14.420Z,60.30
2019-03-08T04:04:45.201Z,60.20
2019-03-08T04:07:15.891Z,60.50
2019-03-08T04:09:46.342Z,60.80
2019-03-08T04:12:17.474Z,61.30
2019-03-08T04:14:48.234Z,61.40
2019-03-08T04:17:18.403Z,61.70
2019-03-08T04:19:49.182Z,61.90
2019-03-08T04:22:21.126Z,62.10
2019-03-08T04:24:52.005Z,62.30
2019-03-08T04:27:22.645Z,62.60
2019-03-08T04:29:52.756Z,62.40
2019-03-08T04:32:23.975Z,62.10
2019-03-08T04:34:54.839Z,61.90
2019-03-08T04:37:24.931Z,62.00
2019-03-08T04:39:55.746Z,62.00
2019-03-08T04:42:26.885Z,62.20
2019-03-08T04:44:57.674Z,62.30
2019-03-08T04:47:28.306Z,62.20
2019-03-08T04:49:59.162Z,62.30
2019-03-08T04:52:30.841Z,62.30
2019-03-08T04:55:01.033Z,62.60
2019-03-08T04:57:31.222Z,62.50
2019-03-08T05:00:02.916Z,62.60
2019-03-08T05:02:35.505Z,62.50
2019-03-08T05:05:06.601Z,62.60
2019-03-08T05:07:37.379Z,62.60
2019-03-08T05:10:11.083Z,62.70
2019-03-08T05:12:42.947Z,63.00
2019-03-08T05:15:14.190Z,63.20
2019-03-08T05:17:44.927Z,63.50
2019-03-08T05:20:15.323Z,63.80
2019-03-08T05:22:46.483Z,64.20
2019-03-08T05:25:17.470Z,64.40
2019-03-08T05:27:47.544Z,64.70
2019-03-08T05:30:19.301Z,65.70
2019-03-08T05:32:50.443Z,64.90
2019-03-08T05:35:21.213Z,65.00
2019-03-08T05:37:51.517Z,65.30
2019-03-08T05:40:22.413Z,65.30
2019-03-08T05:42:54.132Z,65.30
2019-03-08T05:45:24.897Z,65.00
2019-03-08T05:47:55.550Z,64.70
2019-03-08T05:50:26.062Z,64.90
2019-03-08T05:52:57.838Z,64.60
2019-03-08T05:55:28.616Z,64.00
2019-03-08T05:57:58.716Z,63.80
2019-03-08T06:00:34.694Z,63.60
2019-03-08T06:03:08.577Z,63.60
2019-03-08T06:05:39.301Z,63.40
2019-03-08T06:08:09.952Z,63.10
2019-03-08T06:10:40.768Z,62.80
2019-03-08T06:13:11.850Z,62.40
2019-03-08T06:15:42.272Z,61.70
2019-03-08T06:18:12.521Z,60.70
2019-03-08T06:20:42.692Z,59.00
2019-03-08T06:23:15.706Z,57.50
2019-03-08T06:25:46.482Z,54.60
2019-03-08T06:28:17.347Z,51.30
2019-03-08T06:30:48.253Z,47.90
2019-03-08T06:36:44.830Z,42.30
2019-03-08T06:39:15.515Z,38.60
2019-03-08T06:41:46.267Z,36.70
2019-03-08T06:44:16.954Z,34.90
2019-03-08T06:46:47.763Z,34.00
2019-03-08T06:49:18.466Z,32.60
2019-03-08T06:51:51.315Z,31.00
2019-03-08T06:54:21.978Z,29.90
2019-03-08T06:56:52.763Z,29.70
2019-03-08T06:59:27.728Z,28.70
2019-03-08T07:02:00.487Z,27.50
2019-03-08T07:04:31.272Z,26.90
2019-03-08T07:07:02.081Z,26.20
2019-03-08T07:09:32.943Z,25.10
2019-03-08T07:12:06.005Z,24.80
2019-03-08T07:17:34.429Z,24.10
2019-03-08T07:20:07.777Z,23.60
2019-03-08T07:22:48.844Z,23.20
2019-03-08T07:25:33.455Z,22.80
2019-03-08T07:28:19.177Z,22.30
2019-03-08T07:30:57.686Z,21.70
2019-03-08T07:33:30.580Z,21.60
2019-03-08T07:36:09.484Z,21.50
2019-03-08T07:38:41.628Z,21.70
2019-03-08T07:41:13.965Z,21.70
2019-03-08T07:54:53.107Z,21.20
2019-03-08T07:57:46.257Z,20.70
2019-03-08T08:00:18.533Z,20.10
2019-03-08T08:02:51.761Z,19.60
2019-03-08T08:05:24.034Z,19.30
2019-03-08T08:07:58.983Z,19.30
2019-03-08T08:10:37.106Z,19.00
2019-03-08T08:13:25.501Z,18.60
2019-03-08T08:16:03.520Z,18.40
2019-03-08T08:18:37.900Z,18.40
2019-03-08T08:21:26.448Z,18.50
2019-03-08T08:24:01.370Z,18.50
2019-03-08T08:26:36.576Z,18.20
2019-03-08T08:29:34.709Z,17.90
2019-03-08T08:32:17.691Z,17.80
2019-03-08T08:34:49.671Z,17.80
2019-03-08T08:37:30.715Z,18.00
2019-03-08T08:40:02.623Z,17.80
2019-03-08T08:42:35.794Z,17.50
2019-03-08T08:45:16.701Z,17.60
2019-03-08T08:48:44.139Z,17.70
2019-03-08T08:51:16.502Z,18.00
2019-03-08T08:53:51.081Z,18.20
2019-03-08T08:56:23.062Z,18.50
2019-03-08T08:58:55.103Z,18.40
2019-03-08T09:01:27.117Z,18.30
2019-03-08T09:04:05.649Z,18.50
2019-03-08T09:06:54.033Z,17.80
2019-03-08T09:09:42.273Z,17.40
2019-03-08T09:12:15.320Z,17.40
2019-03-08T09:14:53.121Z,17.70
2019-03-08T09:17:25.027Z,17.90
2019-03-08T09:20:13.454Z,18.30
2019-03-08T09:22:45.480Z,17.50
2019-03-08T09:25:20.348Z,17.30
2019-03-08T09:27:55.603Z,17.70
2019-03-08T09:30:27.639Z,18.00
2019-03-08T09:33:03.395Z,17.70
2019-03-08T09:35:45.228Z,17.70
2019-03-08T09:38:20.250Z,17.70
2019-03-08T09:41:08.642Z,17.50
2019-03-08T09:43:41.737Z,17.30
2019-03-08T09:46:26.013Z,17.50
2019-03-08T09:49:12.989Z,17.60
2019-03-08T09:51:45.206Z,18.50
2019-03-08T09:54:26.013Z,18.50
2019-03-08T09:56:58.119Z,18.00
2019-03-08T09:59:35.917Z,18.60
2019-03-08T10:02:09.373Z,18.70
2019-03-08T10:04:42.315Z,18.40
2019-03-08T10:07:20.146Z,19.00
2019-03-08T10:09:58.497Z,19.50
2019-03-08T10:12:46.548Z,20.70
2019-03-08T10:15:33.997Z,22.60
2019-03-08T10:18:18.191Z,24.30
2019-03-08T10:20:53.608Z,26.20
2019-03-08T10:23:43.023Z,27.10
2019-03-08T10:26:30.452Z,27.60
2019-03-08T10:29:17.341Z,28.90
2019-03-08T10:32:04.784Z,29.70
2019-03-08T10:34:49.015Z,30.70
2019-03-08T10:37:21.265Z,31.80
2019-03-08T10:40:09.804Z,31.20
2019-03-08T10:42:52.435Z,31.30
2019-03-08T10:45:33.351Z,31.90
2019-03-08T10:48:21.754Z,32.20
2019-03-08T10:50:59.690Z,32.70
2019-03-08T10:53:40.836Z,32.80
2019-03-08T10:56:29.149Z,33.30
2019-03-08T10:59:10.384Z,33.90
2019-03-08T11:01:45.762Z,34.00
2019-03-08T11:04:24.007Z,33.30
2019-03-08T11:07:04.047Z,33.30
2019-03-08T11:09:36.439Z,34.00
2019-03-08T11:12:11.886Z,33.60
2019-03-08T11:14:44.094Z,33.60
2019-03-08T11:17:31.659Z,33.10
2019-03-08T11:20:20.034Z,33.20
2019-03-08T11:23:01.330Z,33.10
2019-03-08T11:25:37.020Z,33.50
2019-03-08T11:28:25.552Z,33.20
2019-03-08T11:31:14.108Z,34.20
2019-03-08T11:33:52.308Z,34.00
2019-03-08T11:36:27.760Z,33.90
2019-03-08T11:39:00.165Z,34.20
2019-03-08T11:41:40.141Z,34.20
2019-03-08T11:44:12.459Z,34.20
2019-03-08T11:46:44.671Z,34.30
2019-03-08T11:49:38.174Z,34.20
2019-03-08T11:52:10.496Z,33.70
2019-03-08T11:54:54.830Z,34.50
2019-03-08T11:57:35.939Z,34.80
2019-03-08T12:00:11.207Z,34.30
2019-03-08T12:02:52.742Z,35.30
2019-03-08T12:05:25.063Z,35.40
2019-03-08T12:08:01.252Z,34.80
2019-03-08T12:10:33.573Z,35.10
2019-03-08T12:13:12.623Z,35.10
2019-03-08T12:16:05.783Z,35.40
2019-03-08T12:18:49.112Z,35.80
2019-03-08T12:21:22.445Z,35.80
2019-03-08T12:24:00.562Z,34.80
2019-03-08T12:26:44.944Z,34.10
2019-03-08T12:29:22.826Z,34.10
2019-03-08T12:31:56.327Z,34.20
2019-03-08T12:34:34.844Z,34.70
2019-03-08T12:37:07.320Z,35.20
2019-03-08T12:43:12.210Z,33.30
2019-03-08T12:45:47.302Z,33.40
2019-03-08T12:48:35.648Z,34.20
2019-03-08T12:51:14.330Z,33.90
2019-03-08T12:53:49.845Z,34.40
2019-03-08T12:56:25.181Z,35.00
2019-03-08T12:58:57.528Z,34.80
2019-03-08T13:01:46.026Z,35.00
2019-03-08T13:04:24.323Z,35.20
2019-03-08T13:07:12.535Z,34.40
2019-03-08T13:09:48.823Z,34.30
2019-03-08T13:12:20.552Z,34.40
2019-03-08T13:14:51.310Z,34.10
2019-03-08T13:17:22.376Z,34.30
2019-03-08T13:19:53.146Z,34.80
2019-03-08T13:22:24.899Z,34.10
2019-03-08T13:24:55.735Z,33.90
2019-03-08T13:27:26.383Z,34.90
2019-03-08T13:29:57.249Z,35.20
2019-03-08T13:32:28.060Z,35.20
2019-03-08T13:34:58.823Z,35.20
2019-03-08T13:37:29.453Z,33.70
2019-03-08T13:40:00.309Z,35.10
2019-03-08T13:42:31.067Z,34.90
2019-03-08T13:45:01.831Z,34.00
2019-03-08T13:47:32.577Z,33.90
2019-03-08T13:50:03.537Z,34.20
2019-03-08T13:52:34.218Z,34.40
2019-03-08T13:55:09.100Z,33.90
2019-03-08T13:57:39.922Z,33.70
2019-03-08T14:00:19.368Z,33.70
2019-03-08T14:02:50.059Z,33.00
2019-03-08T14:05:21.103Z,33.60
2019-03-08T14:07:51.738Z,35.10
2019-03-08T14:10:24.022Z,35.10
2019-03-08T14:12:54.778Z,35.60
2019-03-08T14:15:25.518Z,34.70
2019-03-08T14:17:56.375Z,34.90
2019-03-08T14:20:28.352Z,34.40
2019-03-08T14:22:59.107Z,34.70
2019-03-08T14:25:30.120Z,34.40
2019-03-08T14:28:00.785Z,34.80
2019-03-08T14:30:42.150Z,34.80
2019-03-08T14:33:12.945Z,34.90
2019-03-08T14:35:43.746Z,34.90
2019-03-08T14:38:14.373Z,35.10
2019-03-08T14:40:53.427Z,34.60
2019-03-08T14:43:32.955Z,34.90
2019-03-08T14:46:05.406Z,35.40
2019-03-08T14:48:37.035Z,35.30
2019-03-08T14:51:09.387Z,35.40
2019-03-08T14:53:39.962Z,36.20
2019-03-08T14:56:13.171Z,36.20
2019-03-08T14:58:45.073Z,35.90
2019-03-08T15:01:16.022Z,36.20
2019-03-08T15:03:46.655Z,36.00
2019-03-08T15:06:17.320Z,35.60
2019-03-08T15:08:51.201Z,36.00
2019-03-08T15:11:23.630Z,35.90
2019-03-08T15:13:52.684Z,35.80
2019-03-08T15:16:23.583Z,35.30
2019-03-08T15:18:54.445Z,35.30
2019-03-08T15:21:25.195Z,35.30
2019-03-08T15:23:56.152Z,35.20
2019-03-08T15:26:26.984Z,35.00
2019-03-08T15:28:57.722Z,34.50
2019-03-08T15:31:28.517Z,34.10
2019-03-08T15:33:59.259Z,34.00
2019-03-08T15:36:30.020Z,34.20
2019-03-08T15:39:00.657Z,33.80
2019-03-08T15:41:33.065Z,33.20
2019-03-08T15:44:03.830Z,33.60
2019-03-08T15:46:34.594Z,33.50
2019-03-08T15:49:05.334Z,33.60
2019-03-08T15:51:36.206Z,33.40
2019-03-08T15:54:06.945Z,33.70
2019-03-08T15:56:37.782Z,33.70
2019-03-08T15:59:08.630Z,34.60
2019-03-08T16:01:39.397Z,35.40
2019-03-08T16:04:12.184Z,34.80
2019-03-08T16:06:43.795Z,35.20
2019-03-08T16:09:15.017Z,35.50
2019-03-08T16:11:46.720Z,36.40
2019-03-08T16:14:17.569Z,36.80
2019-03-08T16:16:48.402Z,37.90
2019-03-08T16:19:20.865Z,37.50
2019-03-08T16:21:52.660Z,37.30
2019-03-08T16:24:23.318Z,37.50
2019-03-08T16:26:54.117Z,37.80
2019-03-08T16:29:24.659Z,38.00
2019-03-08T16:31:59.833Z,38.00
2019-03-08T16:34:30.158Z,38.10
2019-03-08T16:37:10.729Z,37.80
2019-03-08T16:39:51.962Z,38.60
2019-03-08T16:42:35.824Z,38.50
2019-03-08T16:45:13.629Z,38.80
2019-03-08T16:47:51.745Z,39.10
2019-03-08T16:50:35.637Z,39.40
2019-03-08T16:53:07.824Z,39.80
2019-03-08T16:55:53.996Z,40.20
2019-03-08T16:58:35.254Z,40.40
2019-03-08T17:01:16.702Z,40.70
2019-03-08T17:03:51.642Z,41.10
2019-03-08T17:06:29.862Z,41.30
2019-03-08T17:09:02.275Z,41.60
2019-03-08T17:11:39.083Z,41.90
2019-03-08T17:14:18.142Z,41.80
2019-03-08T17:16:51.319Z,42.10
2019-03-08T17:19:26.382Z,42.40
2019-03-08T17:21:59.607Z,42.60
2019-03-08T17:24:35.202Z,42.70
2019-03-08T17:27:07.435Z,43.20
2019-03-08T17:29:42.645Z,43.30
2019-03-08T17:32:24.731Z,43.60
2019-03-08T17:34:57.069Z,44.00
2019-03-08T17:37:29.379Z,43.90
2019-03-08T17:40:10.591Z,44.20
2019-03-08T17:42:43.863Z,44.20
2019-03-08T17:45:25.506Z,43.80
2019-03-08T17:47:57.901Z,43.60
2019-03-08T17:50:46.699Z,43.60
2019-03-08T17:53:21.815Z,43.90
2019-03-08T17:55:57.378Z,43.90
2019-03-08T17:58:47.849Z,44.00
2019-03-08T18:01:25.835Z,44.20
2019-03-08T18:04:01.031Z,44.40
2019-03-08T18:06:34.360Z,44.60
2019-03-08T18:09:10.244Z,44.70
2019-03-08T18:11:47.062Z,44.70
2019-03-08T18:14:29.427Z,44.90
2019-03-08T18:17:14.142Z,45.10
2019-03-08T18:19:46.491Z,45.30
2019-03-08T18:22:19.122Z,45.20
2019-03-08T18:25:00.734Z,45.50
2019-03-08T18:27:36.856Z,46.20
2019-03-08T18:30:28.472Z,45.60
2019-03-08T18:33:01.181Z,45.70
2019-03-08T18:35:48.956Z,45.90
2019-03-08T18:38:24.309Z,46.00
2019-03-08T18:41:02.133Z,46.20
2019-03-08T18:43:34.722Z,46.60
2019-03-08T18:46:16.253Z,46.40
2019-03-08T18:48:48.964Z,46.50
2019-03-08T18:51:33.517Z,46.40
2019-03-08T18:54:22.198Z,46.70
2019-03-08T18:57:04.152Z,46.80
2019-03-08T18:59:49.008Z,47.00
2019-03-08T19:02:30.231Z,46.90
2019-03-08T19:05:15.027Z,46.90
2019-03-08T19:07:47.577Z,46.90
2019-03-08T19:10:23.080Z,46.70
2019-03-08T19:13:05.732Z,46.90
2019-03-08T19:15:41.160Z,46.90
2019-03-08T19:18:23.744Z,47.00
2019-03-08T19:20:59.437Z,47.00
2019-03-08T19:23:47.275Z,47.20
2019-03-08T19:26:23.188Z,46.90
2019-03-08T19:28:58.382Z,47.20
2019-03-08T19:31:36.976Z,47.90
2019-03-08T19:34:25.389Z,47.20
2019-03-08T19:37:06.539Z,47.20
2019-03-08T19:39:51.232Z,47.30
2019-03-08T19:42:23.836Z,47.60
2019-03-08T19:44:59.265Z,47.20
2019-03-08T19:47:31.670Z,47.20
2019-03-08T19:50:13.400Z,47.30
2019-03-08T19:53:02.024Z,47.10
2019-03-08T19:55:37.626Z,47.20
2019-03-08T19:58:28.451Z,46.90
2019-03-08T20:01:17.278Z,46.90
2019-03-08T20:04:05.146Z,46.70
2019-03-08T20:06:43.620Z,46.60
2019-03-08T20:09:16.285Z,46.40
2019-03-08T20:11:58.002Z,46.60
2019-03-08T20:14:30.651Z,46.50
2019-03-08T20:17:06.991Z,46.60
2019-03-08T20:19:48.777Z,46.50
2019-03-08T20:22:25.378Z,46.70
2019-03-08T20:24:58.038Z,47.60
2019-03-08T20:27:46.609Z,46.70
2019-03-08T20:30:35.507Z,46.70
2019-03-08T20:33:18.169Z,46.90
2019-03-08T20:36:07.209Z,47.10
2019-03-08T20:38:48.607Z,47.10
2019-03-08T20:41:24.307Z,47.20
2019-03-08T20:43:56.666Z,47.20
2019-03-08T20:46:29.293Z,47.50
2019-03-08T20:49:00.143Z,47.40
2019-03-08T20:51:31.108Z,47.30
2019-03-08T20:54:01.855Z,47.60
2019-03-08T20:56:33.091Z,47.90
2019-03-08T20:59:04.862Z,47.80
2019-03-08T21:01:35.734Z,48.10
2019-03-08T21:04:06.360Z,47.90
2019-03-08T21:06:37.195Z,48.10
2019-03-08T21:09:08.592Z,48.80
2019-03-08T21:11:40.833Z,48.30
2019-03-08T21:14:11.574Z,48.40
2019-03-08T21:16:42.557Z,48.60
2019-03-08T21:19:14.357Z,48.70
2019-03-08T21:21:45.132Z,49.00
2019-03-08T21:24:15.789Z,49.00
2019-03-08T21:26:46.753Z,49.30
2019-03-08T21:29:17.621Z,49.40
2019-03-08T21:31:48.370Z,49.40
2019-03-08T21:34:19.029Z,49.60
2019-03-08T21:36:49.840Z,49.70
2019-03-08T21:39:20.469Z,49.70
2019-03-08T21:41:52.354Z,49.80
2019-03-08T21:44:24.091Z,49.50
2019-03-08T21:46:54.843Z,49.80
2019-03-08T21:49:25.579Z,49.80
2019-03-08T21:51:57.441Z,49.70
2019-03-08T21:54:29.212Z,49.60
2019-03-08T21:57:00.111Z,50.40
2019-03-08T21:59:30.828Z,49.70
2019-03-08T22:02:02.730Z,49.70
2019-03-08T22:04:34.955Z,49.90
2019-03-08T22:07:05.772Z,50.10
2019-03-08T22:09:44.225Z,50.10
2019-03-08T22:12:15.995Z,50.10
2019-03-08T22:14:46.633Z,50.20
2019-03-08T22:17:17.382Z,50.40
2019-03-08T22:19:49.076Z,50.30
2019-03-08T22:22:20.873Z,51.10
2019-03-08T22:24:51.534Z,50.50
2019-03-08T22:27:23.304Z,50.50
2019-03-08T22:29:53.957Z,50.80
2019-03-08T22:32:25.744Z,50.80
2019-03-08T22:34:56.406Z,50.80
2019-03-08T22:37:27.241Z,50.90
2019-03-08T22:39:57.889Z,51.10
2019-03-08T22:42:29.798Z,51.30
2019-03-08T22:45:00.440Z,51.50
2019-03-08T22:47:31.210Z,51.60
2019-03-08T22:50:03.135Z,51.70
2019-03-08T22:52:36.064Z,51.90
2019-03-08T22:55:09.647Z,51.90
2019-03-08T22:57:40.409Z,52.10
2019-03-08T23:00:14.010Z,52.40
2019-03-08T23:02:47.506Z,52.60
2019-03-08T23:05:18.183Z,52.80
2019-03-08T23:07:48.991Z,53.00
2019-03-08T23:10:19.535Z,53.20
2019-03-08T23:12:51.578Z,53.30
2019-03-08T23:15:22.357Z,52.90
2019-03-08T23:17:53.100Z,52.30
2019-03-08T23:20:24.674Z,52.60
2019-03-08T23:22:57.503Z,53.10
2019-03-08T23:25:28.157Z,53.70
2019-03-08T23:28:06.575Z,53.90
2019-03-08T23:30:37.284Z,54.40
2019-03-08T23:33:09.143Z,54.90
2019-03-08T23:35:40.101Z,55.10
2019-03-08T23:38:10.919Z,55.30
2019-03-08T23:40:41.576Z,55.50
2019-03-08T23:43:13.317Z,55.90
2019-03-08T23:45:43.960Z,56.60
2019-03-08T23:48:14.720Z,56.60
2019-03-08T23:50:45.355Z,56.50
2019-03-08T23:53:17.178Z,56.60
2019-03-08T23:55:47.823Z,56.60
2019-03-08T23:58:19.590Z,56.70
